createdAt,value
2018-07-23T00:00:12.724Z,19.30
2018-07-23T00:02:41.066Z,19.30
2018-07-23T00:05:09.376Z,19.10
2018-07-23T00:07:37.688Z,18.90
2018-07-23T00:10:06.140Z,18.80
2018-07-23T00:12:34.419Z,18.80
2018-07-23T00:15:02.677Z,18.80
2018-07-23T00:17:30.941Z,18.90
2018-07-23T00:19:59.239Z,18.90
2018-07-23T00:22:27.729Z,19.00
2018-07-23T00:24:55.997Z,19.00
2018-07-23T00:27:24.277Z,19.10
2018-07-23T00:29:52.555Z,19.20
2018-07-23T00:32:20.827Z,19.10
2018-07-23T00:34:49.089Z,19.10
2018-07-23T00:37:17.475Z,19.00
2018-07-23T00:39:45.752Z,18.90
2018-07-23T00:42:14.057Z,18.70
2018-07-23T00:44:42.331Z,18.60
2018-07-23T00:47:10.851Z,18.70
2018-07-23T00:49:39.125Z,18.80
2018-07-23T00:52:07.421Z,18.70
2018-07-23T00:54:35.732Z,18.60
2018-07-23T00:57:04.148Z,18.50
2018-07-23T00:59:32.635Z,18.40
2018-07-23T01:02:00.993Z,18.30
2018-07-23T01:04:29.314Z,18.20
2018-07-23T01:06:57.599Z,18.20
2018-07-23T01:11:53.936Z,18.60
2018-07-23T01:14:22.335Z,18.40
2018-07-23T01:19:18.680Z,18.30
2018-07-23T01:21:46.955Z,18.30
2018-07-23T01:24:15.248Z,18.40
2018-07-23T01:26:43.708Z,18.30
2018-07-23T01:29:12.002Z,18.30
2018-07-23T01:31:40.270Z,18.30
2018-07-23T01:34:08.519Z,18.40
2018-07-23T01:36:36.804Z,18.40
2018-07-23T01:41:34.921Z,18.30
2018-07-23T01:44:03.200Z,18.30
2018-07-23T01:46:31.450Z,18.20
2018-07-23T01:48:59.778Z,18.10
2018-07-23T01:51:28.069Z,18.10
2018-07-23T01:53:56.332Z,18.00
2018-07-23T01:56:24.781Z,18.00
2018-07-23T01:58:53.056Z,17.80
2018-07-23T02:01:21.369Z,17.70
2018-07-23T02:03:49.654Z,17.70
2018-07-23T02:06:18.162Z,17.50
2018-07-23T02:08:46.551Z,17.50
2018-07-23T02:11:15.007Z,17.50
2018-07-23T02:13:43.514Z,17.50
2018-07-23T02:16:11.842Z,17.50
2018-07-23T02:18:40.125Z,17.40
2018-07-23T02:21:08.410Z,17.50
2018-07-23T02:23:36.906Z,17.50
2018-07-23T02:26:05.405Z,17.50
2018-07-23T02:28:33.677Z,17.60
2018-07-23T02:31:02.023Z,17.70
2018-07-23T02:33:30.295Z,17.70
2018-07-23T02:35:58.589Z,17.70
2018-07-23T02:38:27.002Z,17.70
2018-07-23T02:40:55.330Z,17.70
2018-07-23T02:43:23.591Z,17.70
2018-07-23T02:45:51.885Z,17.70
2018-07-23T02:48:20.217Z,17.70
2018-07-23T02:50:48.515Z,17.60
2018-07-23T02:53:16.821Z,17.60
2018-07-23T02:55:45.122Z,17.60
2018-07-23T02:58:13.625Z,17.60
2018-07-23T03:00:42.065Z,17.60
2018-07-23T03:03:10.825Z,17.60
2018-07-23T03:05:39.127Z,17.40
2018-07-23T03:08:07.435Z,17.30
2018-07-23T03:10:35.718Z,17.30
2018-07-23T03:13:04.020Z,17.20
2018-07-23T03:15:32.348Z,17.10
2018-07-23T03:18:00.601Z,17.20
2018-07-23T03:20:28.918Z,17.30
2018-07-23T03:22:57.228Z,17.30
2018-07-23T03:25:25.579Z,17.30
2018-07-23T03:27:53.817Z,17.30
2018-07-23T03:30:22.133Z,17.30
2018-07-23T03:32:50.480Z,17.20
2018-07-23T03:35:18.846Z,17.20
2018-07-23T03:37:47.117Z,17.30
2018-07-23T03:40:15.398Z,17.30
2018-07-23T03:42:43.648Z,17.10
2018-07-23T03:45:12.100Z,17.00
2018-07-23T03:47:40.374Z,16.90
2018-07-23T03:50:08.640Z,16.90
2018-07-23T03:52:36.954Z,16.80
2018-07-23T03:55:05.250Z,16.90
2018-07-23T03:57:33.566Z,16.90
2018-07-23T04:00:01.921Z,16.90
2018-07-23T04:04:58.274Z,17.00
2018-07-23T04:09:54.604Z,17.00
2018-07-23T04:12:22.919Z,17.00
2018-07-23T04:14:51.181Z,17.00
2018-07-23T04:17:19.464Z,17.00
2018-07-23T04:19:47.767Z,17.10
2018-07-23T04:22:16.039Z,17.10
2018-07-23T04:24:44.323Z,17.00
2018-07-23T04:27:12.641Z,17.00
2018-07-23T04:29:41.023Z,17.10
2018-07-23T04:32:09.573Z,17.10
2018-07-23T04:34:38.015Z,17.20
2018-07-23T04:37:06.305Z,17.30
2018-07-23T04:39:34.569Z,17.30
2018-07-23T04:42:02.857Z,17.30
2018-07-23T04:44:31.215Z,17.10
2018-07-23T04:46:59.516Z,17.20
2018-07-23T04:49:27.765Z,17.20
2018-07-23T04:51:56.053Z,17.30
2018-07-23T04:54:24.342Z,17.30
2018-07-23T04:56:52.719Z,17.30
2018-07-23T04:59:20.920Z,17.30
2018-07-23T05:01:49.189Z,17.30
2018-07-23T05:04:17.621Z,17.50
2018-07-23T05:06:45.896Z,17.50
2018-07-23T05:09:14.181Z,17.60
2018-07-23T05:11:42.487Z,17.70
2018-07-23T05:14:11.378Z,17.80
2018-07-23T05:16:39.897Z,17.80
2018-07-23T05:19:08.314Z,17.80
2018-07-23T05:21:36.756Z,17.80
2018-07-23T05:24:05.215Z,17.90
2018-07-23T05:26:33.530Z,17.90
2018-07-23T05:29:01.828Z,18.00
2018-07-23T05:31:30.099Z,18.10
2018-07-23T05:33:58.374Z,18.10
2018-07-23T05:36:26.677Z,18.20
2018-07-23T05:38:54.961Z,18.10
2018-07-23T05:41:23.212Z,18.10
2018-07-23T05:43:51.586Z,18.20
2018-07-23T05:46:19.886Z,18.20
2018-07-23T05:48:48.166Z,18.30
2018-07-23T05:51:16.473Z,18.40
2018-07-23T05:53:44.756Z,18.50
2018-07-23T05:56:13.042Z,18.50
2018-07-23T05:58:41.308Z,18.50
2018-07-23T06:03:37.625Z,18.50
2018-07-23T06:06:05.930Z,18.50
2018-07-23T06:08:34.220Z,18.50
2018-07-23T06:11:02.472Z,18.50
2018-07-23T06:13:30.794Z,18.60
2018-07-23T06:15:59.046Z,18.70
2018-07-23T06:18:27.326Z,18.70
2018-07-23T06:20:55.580Z,18.80
2018-07-23T06:23:23.861Z,18.80
2018-07-23T06:25:52.223Z,18.80
2018-07-23T06:28:20.456Z,18.80
2018-07-23T06:30:48.699Z,18.90
2018-07-23T06:33:16.968Z,18.90
2018-07-23T06:35:45.257Z,19.00
2018-07-23T06:38:13.590Z,19.10
2018-07-23T06:40:41.870Z,19.00
2018-07-23T06:43:10.189Z,19.10
2018-07-23T06:45:38.448Z,19.20
2018-07-23T06:48:06.754Z,19.20
2018-07-23T06:50:35.072Z,19.20
2018-07-23T06:53:03.396Z,19.20
2018-07-23T06:55:31.665Z,19.30
2018-07-23T06:57:59.918Z,19.30
2018-07-23T07:00:28.343Z,19.30
2018-07-23T07:02:56.652Z,19.40
2018-07-23T07:05:24.906Z,19.30
2018-07-23T07:07:53.174Z,19.40
2018-07-23T07:10:21.435Z,19.40
2018-07-23T07:12:49.710Z,19.50
2018-07-23T07:15:18.058Z,19.50
2018-07-23T07:20:15.270Z,19.70
2018-07-23T07:22:43.538Z,19.70
2018-07-23T07:25:12.026Z,19.70
2018-07-23T07:27:40.340Z,19.70
2018-07-23T07:30:09.180Z,19.80
2018-07-23T07:32:37.444Z,19.90
2018-07-23T07:35:05.738Z,19.90
2018-07-23T07:37:34.197Z,20.00
2018-07-23T07:42:30.562Z,20.10
2018-07-23T07:44:58.844Z,20.10
2018-07-23T07:47:27.110Z,20.10
2018-07-23T07:49:55.364Z,20.20
2018-07-23T07:52:23.642Z,20.40
2018-07-23T07:54:51.920Z,20.40
2018-07-23T07:57:20.178Z,20.40
2018-07-23T08:02:16.483Z,20.50
2018-07-23T08:04:44.750Z,20.50
2018-07-23T08:07:13.081Z,20.60
2018-07-23T08:09:41.335Z,20.60
2018-07-23T08:12:09.618Z,20.60
2018-07-23T08:14:37.990Z,20.60
2018-07-23T08:17:06.415Z,20.70
2018-07-23T08:19:34.687Z,20.70
2018-07-23T08:22:02.939Z,20.70
2018-07-23T08:24:31.198Z,20.80
2018-07-23T08:26:59.636Z,20.90
2018-07-23T08:29:27.892Z,20.80
2018-07-23T08:31:56.296Z,20.90
2018-07-23T08:34:24.461Z,21.00
2018-07-23T08:36:52.770Z,20.90
2018-07-23T08:39:21.075Z,21.00
2018-07-23T08:44:17.356Z,21.20
2018-07-23T08:46:45.622Z,21.20
2018-07-23T08:49:14.042Z,21.20
2018-07-23T08:51:42.332Z,21.30
2018-07-23T08:54:10.588Z,21.30
2018-07-23T08:56:38.874Z,21.50
2018-07-23T08:59:07.210Z,21.50
2018-07-23T09:01:35.702Z,21.50
2018-07-23T09:04:04.021Z,21.60
2018-07-23T09:06:32.328Z,21.70
2018-07-23T09:11:28.872Z,21.60
2018-07-23T09:13:57.180Z,21.70
2018-07-23T09:16:25.451Z,21.90
2018-07-23T09:18:53.744Z,21.90
2018-07-23T09:21:22.179Z,22.00
2018-07-23T09:26:18.584Z,21.90
2018-07-23T09:28:46.858Z,22.00
2018-07-23T09:31:15.110Z,22.10
2018-07-23T09:33:43.577Z,22.10
2018-07-23T09:36:11.959Z,22.20
2018-07-23T09:38:40.266Z,22.30
2018-07-23T09:41:08.510Z,22.30
2018-07-23T09:43:36.787Z,22.40
2018-07-23T09:46:05.516Z,22.30
2018-07-23T09:48:33.818Z,22.30
2018-07-23T09:51:02.157Z,22.30
2018-07-23T09:53:30.457Z,22.40
2018-07-23T09:55:58.840Z,22.50
2018-07-23T09:58:27.147Z,22.60
2018-07-23T10:01:02.597Z,22.50
2018-07-23T10:03:31.046Z,22.60
2018-07-23T10:05:59.156Z,22.60
2018-07-23T10:08:28.257Z,22.60
2018-07-23T10:10:56.580Z,22.60
2018-07-23T10:13:24.854Z,22.70
2018-07-23T10:15:53.193Z,22.60
2018-07-23T10:18:21.496Z,22.70
2018-07-23T10:20:49.777Z,22.90
2018-07-23T10:23:18.056Z,23.00
2018-07-23T10:25:46.409Z,23.20
2018-07-23T10:28:14.652Z,23.20
2018-07-23T10:30:42.938Z,23.20
2018-07-23T10:33:11.202Z,23.40
2018-07-23T10:35:39.666Z,23.40
2018-07-23T10:38:07.922Z,23.40
2018-07-23T10:40:36.190Z,23.50
2018-07-23T10:43:04.531Z,23.70
2018-07-23T10:45:32.812Z,23.60
2018-07-23T10:48:01.074Z,23.60
2018-07-23T10:50:29.380Z,23.60
2018-07-23T10:52:57.664Z,23.70
2018-07-23T10:55:25.922Z,23.80
2018-07-23T10:57:54.991Z,24.00
2018-07-23T11:00:23.274Z,24.10
2018-07-23T11:02:51.562Z,24.20
2018-07-23T11:05:19.817Z,24.30
2018-07-23T11:07:48.110Z,24.30
2018-07-23T11:10:16.390Z,24.40
2018-07-23T11:12:44.661Z,24.40
2018-07-23T11:15:12.993Z,24.30
2018-07-23T11:17:41.397Z,24.50
2018-07-23T11:20:11.225Z,24.60
2018-07-23T11:22:39.724Z,24.90
2018-07-23T11:25:38.978Z,24.70
2018-07-23T11:27:36.405Z,24.70
2018-07-23T11:30:05.169Z,24.60
2018-07-23T11:32:33.852Z,24.70
2018-07-23T11:35:02.215Z,24.80
2018-07-23T11:37:30.460Z,24.80
2018-07-23T11:42:26.912Z,25.10
2018-07-23T11:44:55.225Z,25.30
2018-07-23T11:47:23.498Z,25.40
2018-07-23T11:49:51.800Z,25.60
2018-07-23T11:52:20.060Z,25.60
2018-07-23T11:54:48.554Z,25.60
2018-07-23T11:57:16.978Z,25.50
2018-07-23T11:59:45.316Z,25.60
2018-07-23T12:02:13.646Z,25.60
2018-07-23T12:04:42.190Z,25.60
2018-07-23T12:07:10.310Z,26.00
2018-07-23T12:09:38.616Z,26.20
2018-07-23T12:12:07.356Z,26.50
2018-07-23T12:14:35.640Z,26.50
2018-07-23T12:17:03.932Z,26.30
2018-07-23T12:19:32.218Z,26.10
2018-07-23T12:22:00.583Z,26.20
2018-07-23T12:24:28.875Z,26.40
2018-07-23T12:26:57.134Z,26.70
2018-07-23T12:29:25.401Z,27.10
2018-07-23T12:31:53.707Z,27.20
2018-07-23T12:34:22.007Z,26.90
2018-07-23T12:36:50.258Z,26.80
2018-07-23T12:39:18.561Z,26.80
2018-07-23T12:41:46.871Z,27.00
2018-07-23T12:44:15.136Z,27.10
2018-07-23T12:46:43.571Z,27.30
2018-07-23T12:49:11.914Z,28.10
2018-07-23T12:51:40.188Z,28.10
2018-07-23T12:54:08.565Z,28.30
2018-07-23T12:56:36.918Z,28.20
2018-07-23T12:59:05.222Z,28.60
2018-07-23T13:01:33.502Z,28.50
2018-07-23T13:04:01.778Z,28.30
2018-07-23T13:06:30.085Z,28.10
2018-07-23T13:08:58.362Z,28.90
2018-07-23T13:11:26.674Z,28.70
2018-07-23T13:13:54.950Z,28.40
2018-07-23T13:16:23.494Z,28.50
2018-07-23T13:18:51.768Z,28.70
2018-07-23T13:21:20.070Z,28.80
2018-07-23T13:23:48.466Z,29.00
2018-07-23T13:26:16.752Z,28.90
2018-07-23T13:28:45.259Z,29.00
2018-07-23T13:31:13.790Z,29.40
2018-07-23T13:33:42.056Z,29.50
2018-07-23T13:36:10.324Z,29.30
2018-07-23T13:38:38.582Z,29.50
2018-07-23T13:41:07.363Z,29.80
2018-07-23T13:43:35.643Z,29.80
2018-07-23T13:46:03.990Z,29.70
2018-07-23T13:51:00.321Z,30.00
2018-07-23T13:55:56.638Z,30.40
2018-07-23T13:58:24.906Z,30.80
2018-07-23T14:00:53.475Z,31.70
2018-07-23T14:03:21.931Z,31.90
2018-07-23T14:05:50.242Z,31.80
2018-07-23T14:08:18.504Z,32.10
2018-07-23T14:10:46.774Z,32.40
2018-07-23T14:13:15.205Z,32.40
2018-07-23T14:15:43.526Z,32.40
2018-07-23T14:18:11.917Z,32.40
2018-07-23T14:20:40.193Z,32.30
2018-07-23T14:23:08.511Z,32.70
2018-07-23T14:25:36.868Z,32.90
2018-07-23T14:28:05.352Z,33.10
2018-07-23T14:30:33.705Z,33.40
2018-07-23T14:33:02.035Z,33.30
2018-07-23T14:35:30.349Z,33.40
2018-07-23T14:37:58.720Z,33.50
2018-07-23T14:40:27.119Z,33.30
2018-07-23T14:42:55.564Z,33.20
2018-07-23T14:45:23.962Z,33.70
2018-07-23T14:47:52.547Z,34.20
2018-07-23T14:50:21.125Z,34.10
2018-07-23T14:52:49.419Z,33.70
2018-07-23T14:55:17.743Z,33.70
2018-07-23T14:57:46.201Z,33.80
2018-07-23T15:00:14.789Z,33.40
2018-07-23T15:02:43.273Z,33.20
2018-07-23T15:05:11.691Z,32.80
2018-07-23T15:07:39.991Z,32.90
2018-07-23T15:10:08.573Z,32.70
2018-07-23T15:12:36.857Z,32.50
2018-07-23T15:15:05.279Z,33.20
2018-07-23T15:17:33.591Z,33.70
2018-07-23T15:20:01.896Z,33.60
2018-07-23T15:22:30.196Z,33.90
2018-07-23T15:24:58.627Z,34.30
2018-07-23T15:27:26.950Z,33.70
2018-07-23T15:29:55.194Z,33.80
2018-07-23T15:32:23.762Z,33.80
2018-07-23T15:34:52.209Z,33.20
2018-07-23T15:39:48.586Z,33.10
2018-07-23T15:42:16.988Z,33.50
2018-07-23T15:44:45.565Z,33.30
2018-07-23T15:47:13.553Z,32.70
2018-07-23T15:49:41.876Z,32.90
2018-07-23T15:52:10.276Z,32.90
2018-07-23T15:54:38.552Z,33.10
2018-07-23T15:57:06.849Z,33.40
2018-07-23T15:59:35.206Z,33.80
2018-07-23T16:02:03.500Z,33.40
2018-07-23T16:04:31.799Z,32.70
2018-07-23T16:07:00.100Z,32.70
2018-07-23T16:09:28.596Z,33.20
2018-07-23T16:11:56.921Z,33.40
2018-07-23T16:14:25.311Z,33.70
2018-07-23T16:16:53.574Z,33.70
2018-07-23T16:19:22.035Z,33.80
2018-07-23T16:21:50.332Z,33.90
2018-07-23T16:24:18.650Z,34.00
2018-07-23T16:26:46.947Z,33.70
2018-07-23T16:29:15.275Z,33.00
2018-07-23T16:31:43.588Z,33.30
2018-07-23T16:34:11.917Z,33.70
2018-07-23T16:36:40.233Z,33.60
2018-07-23T16:39:10.328Z,33.40
2018-07-23T16:41:38.712Z,33.50
2018-07-23T16:44:07.485Z,33.50
2018-07-23T16:46:36.132Z,33.40
2018-07-23T16:51:32.582Z,33.50
2018-07-23T16:54:01.141Z,33.30
2018-07-23T16:56:30.697Z,33.20
2018-07-23T16:58:59.362Z,33.00
2018-07-23T17:01:27.641Z,32.80
2018-07-23T17:03:55.909Z,32.50
2018-07-23T17:06:24.207Z,32.40
2018-07-23T17:08:52.539Z,32.40
2018-07-23T17:11:20.818Z,32.30
2018-07-23T17:13:49.123Z,32.00
2018-07-23T17:16:17.615Z,31.90
2018-07-23T17:18:46.003Z,31.80
2018-07-23T17:21:14.287Z,31.50
2018-07-23T17:23:42.736Z,31.50
2018-07-23T17:26:11.004Z,31.50
2018-07-23T17:28:39.310Z,31.50
2018-07-23T17:31:07.997Z,31.20
2018-07-23T17:33:36.252Z,30.70
2018-07-23T17:36:04.872Z,30.50
2018-07-23T17:38:33.173Z,30.50
2018-07-23T17:41:01.529Z,30.50
2018-07-23T17:43:29.781Z,30.50
2018-07-23T17:45:58.151Z,30.50
2018-07-23T17:48:26.547Z,30.60
2018-07-23T17:50:54.827Z,30.50
2018-07-23T17:53:23.166Z,30.40
2018-07-23T17:55:51.542Z,30.30
2018-07-23T17:58:19.803Z,30.10
2018-07-23T18:00:48.099Z,30.10
2018-07-23T18:03:16.543Z,30.00
2018-07-23T18:05:44.841Z,30.10
2018-07-23T18:08:13.124Z,30.00
2018-07-23T18:10:41.628Z,29.90
2018-07-23T18:13:09.991Z,30.00
2018-07-23T18:15:38.278Z,29.70
2018-07-23T18:18:06.590Z,29.60
2018-07-23T18:20:34.863Z,29.40
2018-07-23T18:23:03.183Z,29.30
2018-07-23T18:25:31.553Z,29.10
2018-07-23T18:27:59.879Z,29.10
2018-07-23T18:30:28.138Z,29.10
2018-07-23T18:32:56.499Z,29.00
2018-07-23T18:35:24.784Z,29.00
2018-07-23T18:37:53.112Z,28.60
2018-07-23T18:40:21.573Z,28.60
2018-07-23T18:42:50.181Z,28.50
2018-07-23T18:45:18.581Z,28.40
2018-07-23T18:47:46.971Z,28.40
2018-07-23T18:50:15.245Z,28.00
2018-07-23T18:52:43.540Z,27.80
2018-07-23T18:55:11.843Z,27.80
2018-07-23T18:57:40.116Z,27.70
2018-07-23T19:00:08.926Z,27.70
2018-07-23T19:02:37.265Z,27.60
2018-07-23T19:05:05.801Z,27.50
2018-07-23T19:07:34.280Z,27.30
2018-07-23T19:10:02.559Z,27.20
2018-07-23T19:12:30.952Z,27.10
2018-07-23T19:14:59.320Z,26.90
2018-07-23T19:17:27.829Z,26.60
2018-07-23T19:19:56.355Z,26.60
2018-07-23T19:22:24.619Z,26.70
2018-07-23T19:24:53.071Z,26.50
2018-07-23T19:27:21.454Z,26.40
2018-07-23T19:29:49.739Z,26.30
2018-07-23T19:32:18.406Z,26.30
2018-07-23T19:34:46.684Z,26.10
2018-07-23T19:37:14.951Z,26.00
2018-07-23T19:39:43.329Z,25.90
2018-07-23T19:42:11.611Z,25.90
2018-07-23T19:44:39.927Z,25.80
2018-07-23T19:47:08.305Z,25.70
2018-07-23T19:49:36.625Z,25.60
2018-07-23T19:52:05.067Z,25.50
2018-07-23T19:54:33.377Z,25.50
2018-07-23T19:57:01.777Z,25.40
2018-07-23T19:59:30.113Z,25.40
2018-07-23T20:01:58.426Z,25.20
2018-07-23T20:04:26.779Z,25.20
2018-07-23T20:06:55.068Z,25.10
2018-07-23T20:09:23.363Z,25.10
2018-07-23T20:11:51.777Z,25.00
2018-07-23T20:14:20.433Z,24.80
2018-07-23T20:16:48.923Z,24.80
2018-07-23T20:19:17.262Z,24.70
2018-07-23T20:21:45.631Z,24.70
2018-07-23T20:24:13.903Z,24.70
2018-07-23T20:26:42.297Z,24.60
2018-07-23T20:29:10.724Z,24.60
2018-07-23T20:31:39.414Z,24.50
2018-07-23T20:34:07.780Z,24.30
2018-07-23T20:36:36.206Z,24.30
2018-07-23T20:39:06.724Z,24.30
2018-07-23T20:41:35.437Z,24.30
2018-07-23T20:44:03.789Z,24.30
2018-07-23T20:46:32.500Z,24.20
2018-07-23T20:49:00.839Z,24.10
2018-07-23T20:51:29.296Z,24.00
2018-07-23T20:56:26.138Z,24.00
2018-07-23T20:58:54.624Z,24.00
2018-07-23T21:01:23.095Z,23.90
2018-07-23T21:03:51.416Z,23.90
2018-07-23T21:06:19.838Z,23.80
2018-07-23T21:08:48.318Z,23.70
2018-07-23T21:11:16.918Z,23.70
2018-07-23T21:13:45.681Z,23.70
2018-07-23T21:16:14.047Z,23.60
2018-07-23T21:18:42.660Z,23.50
2018-07-23T21:21:11.059Z,23.50
2018-07-23T21:23:39.838Z,23.50
2018-07-23T21:26:08.234Z,23.40
2018-07-23T21:28:36.936Z,23.40
2018-07-23T21:31:05.999Z,23.30
2018-07-23T21:33:34.591Z,23.30
2018-07-23T21:36:03.371Z,23.20
2018-07-23T21:38:31.769Z,23.10
2018-07-23T21:41:00.031Z,23.00
2018-07-23T21:43:28.393Z,23.00
2018-07-23T21:45:56.707Z,23.00
2018-07-23T21:48:25.109Z,22.90
2018-07-23T21:50:53.374Z,22.80
2018-07-23T21:53:21.664Z,22.90
2018-07-23T21:55:50.019Z,22.90
2018-07-23T21:58:18.457Z,22.90
2018-07-23T22:00:46.981Z,22.90
2018-07-23T22:03:15.435Z,22.80
2018-07-23T22:05:43.737Z,22.80
2018-07-23T22:08:12.246Z,22.90
2018-07-23T22:10:40.541Z,22.80
2018-07-23T22:13:08.845Z,22.80
2018-07-23T22:15:37.180Z,22.80
2018-07-23T22:20:33.819Z,22.90
2018-07-23T22:23:02.181Z,22.80
2018-07-23T22:25:31.596Z,22.70
2018-07-23T22:27:59.974Z,22.70
2018-07-23T22:30:28.359Z,22.60
2018-07-23T22:32:56.641Z,22.50
2018-07-23T22:35:25.019Z,22.50
2018-07-23T22:37:53.298Z,22.50
2018-07-23T22:40:21.599Z,22.50
2018-07-23T22:42:49.876Z,22.50
2018-07-23T22:45:18.351Z,22.40
2018-07-23T22:47:46.597Z,22.30
2018-07-23T22:50:14.905Z,22.40
2018-07-23T22:52:43.209Z,22.30
2018-07-23T22:55:11.552Z,22.30
2018-07-23T22:57:39.905Z,22.30
2018-07-23T23:00:08.431Z,22.10
2018-07-23T23:02:36.688Z,22.10
2018-07-23T23:05:05.160Z,22.00
2018-07-23T23:10:01.604Z,21.80
2018-07-23T23:12:30.007Z,21.80
2018-07-23T23:14:58.270Z,21.70
2018-07-23T23:17:26.564Z,21.70
2018-07-23T23:19:54.907Z,21.90
2018-07-23T23:22:23.212Z,21.80
2018-07-23T23:24:51.495Z,21.70
2018-07-23T23:27:19.846Z,21.70
2018-07-23T23:29:48.162Z,21.70
2018-07-23T23:32:16.528Z,21.50
2018-07-23T23:34:44.877Z,21.50
2018-07-23T23:37:13.568Z,21.50
2018-07-23T23:39:41.862Z,21.40
2018-07-23T23:42:10.276Z,21.30
2018-07-23T23:44:38.570Z,21.40
2018-07-23T23:47:06.823Z,21.40
2018-07-23T23:49:35.146Z,21.50
2018-07-23T23:54:31.878Z,21.50
2018-07-23T23:57:00.418Z,21.50
2018-07-23T23:59:28.687Z,21.40
